Flight NumberIPC1201 Date14.03.2016
Departure AirportEDDK Arrival AirportLGAV
Departure Time12.42Arrival Time15.16
Pilot In CommandShahin A. Kharrazi Block Time2.60 Hours
Pilot Rating100 % Aircraft [ ]


Distance1,056.00 Nm. Passengers0
Fuel Used31,240 Kg. Cargo133901 Kg
Expense Details Income Details
Fuel Cost68,317 v$Ticket Sales0 v$
Pilot Salary1,828 v$ Cargo income160,472.00 v$
Crew Salary0 v$ Bonus15,234 v$
Gross Profit89,576 v$ ( 35,830,400 v$ )

Client Versionv2.1.0 Plugin Max Simrate1
Flight Critique Pilot CommentsLGAV 141350Z 01021KT 9999 FEW015 BKN030 OVC070 08/04 Q1012 NOSIG